createdAt,value
2022-09-26T00:01:17.670Z,3.45
2022-09-26T00:03:48.841Z,3.38
2022-09-26T00:06:17.933Z,2.88
2022-09-26T00:08:45.223Z,3.28
2022-09-26T00:11:12.811Z,3.47
2022-09-26T00:13:40.204Z,3.20
2022-09-26T00:16:06.901Z,3.65
2022-09-26T00:18:33.373Z,3.17
2022-09-26T00:21:10.410Z,3.35
2022-09-26T00:23:37.140Z,3.50
2022-09-26T00:26:04.008Z,3.60
2022-09-26T00:28:30.511Z,3.40
2022-09-26T00:30:57.183Z,3.58
2022-09-26T00:33:24.330Z,4.15
2022-09-26T00:35:54.855Z,3.40
2022-09-26T00:38:21.667Z,3.20
2022-09-26T00:40:49.179Z,3.35
2022-09-26T00:43:32.343Z,3.40
2022-09-26T00:46:05.394Z,3.40
2022-09-26T00:48:32.163Z,3.67
2022-09-26T00:50:59.775Z,3.15
2022-09-26T00:53:28.484Z,3.30
2022-09-26T00:55:59.791Z,3.70
2022-09-26T00:58:37.480Z,4.05
2022-09-26T01:01:04.514Z,3.35
2022-09-26T01:03:31.913Z,2.78
2022-09-26T01:05:59.203Z,3.13
2022-09-26T01:08:28.455Z,3.20
2022-09-26T01:10:55.301Z,3.63
2022-09-26T01:13:22.121Z,2.97
2022-09-26T01:15:48.550Z,3.10
2022-09-26T01:18:14.954Z,3.13
2022-09-26T01:20:53.111Z,2.88
2022-09-26T01:23:28.693Z,3.10
2022-09-26T01:25:58.087Z,2.63
2022-09-26T01:28:43.494Z,2.40
2022-09-26T01:31:12.003Z,2.65
2022-09-26T01:33:44.564Z,2.78
2022-09-26T01:36:22.513Z,2.53
2022-09-26T01:39:01.092Z,2.75
2022-09-26T01:41:46.749Z,2.70
2022-09-26T01:44:20.226Z,2.55
2022-09-26T01:49:12.939Z,2.42
2022-09-26T01:51:50.530Z,2.22
2022-09-26T01:54:19.084Z,2.35
2022-09-26T01:56:46.884Z,2.22
2022-09-26T01:59:17.081Z,2.38
2022-09-26T02:01:44.746Z,2.47
2022-09-26T02:04:13.732Z,1.90
2022-09-26T02:06:40.371Z,2.72
2022-09-26T02:09:17.646Z,2.03
2022-09-26T02:11:46.001Z,2.20
2022-09-26T02:14:18.673Z,2.05
2022-09-26T02:16:49.890Z,1.93
2022-09-26T02:19:21.659Z,2.00
2022-09-26T02:21:48.884Z,2.22
2022-09-26T02:24:15.449Z,2.42
2022-09-26T02:26:44.885Z,1.90
2022-09-26T02:29:14.654Z,2.30
2022-09-26T02:31:44.771Z,2.10
2022-09-26T02:34:11.285Z,2.47
2022-09-26T02:36:38.305Z,2.67
2022-09-26T02:39:04.711Z,1.88
2022-09-26T02:41:38.968Z,1.90
2022-09-26T02:44:24.164Z,2.50
2022-09-26T02:47:00.224Z,2.10
2022-09-26T02:49:41.046Z,2.03
2022-09-26T02:52:20.513Z,2.10
2022-09-26T02:55:10.241Z,1.90
2022-09-26T02:57:49.592Z,2.47
2022-09-26T03:00:22.274Z,2.30
2022-09-26T03:02:54.487Z,1.90
2022-09-26T03:05:22.524Z,2.15
2022-09-26T03:07:52.237Z,2.67
2022-09-26T03:10:19.447Z,2.10
2022-09-26T03:12:45.914Z,2.20
2022-09-26T03:15:13.574Z,2.50
2022-09-26T03:17:42.917Z,1.98
2022-09-26T03:20:18.241Z,2.00
2022-09-26T03:22:45.076Z,2.15
2022-09-26T03:25:14.883Z,2.10
2022-09-26T03:27:43.991Z,2.28
2022-09-26T03:30:11.255Z,2.20
2022-09-26T03:32:37.733Z,2.67
2022-09-26T03:35:04.544Z,1.95
2022-09-26T03:37:30.946Z,2.53
2022-09-26T03:39:57.364Z,2.28
2022-09-26T03:42:24.834Z,2.40
2022-09-26T03:44:53.305Z,2.10
2022-09-26T03:47:19.689Z,2.47
2022-09-26T03:49:46.141Z,2.70
2022-09-26T03:52:12.969Z,2.25
2022-09-26T03:54:39.441Z,2.45
2022-09-26T03:57:05.833Z,2.60
2022-09-26T03:59:32.333Z,2.53
2022-09-26T04:01:58.736Z,2.35
2022-09-26T04:04:25.214Z,2.38
2022-09-26T04:06:51.668Z,2.30
2022-09-26T04:09:18.624Z,2.28
2022-09-26T04:11:45.796Z,2.42
2022-09-26T04:14:12.330Z,2.53
2022-09-26T04:16:38.868Z,2.60
2022-09-26T04:19:05.435Z,2.90
2022-09-26T04:21:34.753Z,2.17
2022-09-26T04:24:01.354Z,3.30
2022-09-26T04:26:28.225Z,3.70
2022-09-26T04:28:56.231Z,4.60
2022-09-26T04:31:23.637Z,5.55
2022-09-26T04:33:50.668Z,4.80
2022-09-26T04:36:17.263Z,4.68
2022-09-26T04:38:43.799Z,4.00
2022-09-26T04:41:12.046Z,3.97
2022-09-26T04:43:38.793Z,3.47
2022-09-26T04:46:09.841Z,3.35
2022-09-26T04:48:36.482Z,2.90
2022-09-26T04:51:10.655Z,2.38
2022-09-26T04:53:38.585Z,3.05
2022-09-26T04:56:05.735Z,2.67
2022-09-26T04:58:32.559Z,2.30
2022-09-26T05:01:03.584Z,3.10
2022-09-26T05:03:30.151Z,3.58
2022-09-26T05:05:56.716Z,2.60
2022-09-26T05:08:23.610Z,2.65
2022-09-26T05:10:54.974Z,2.53
2022-09-26T05:13:22.332Z,3.50
2022-09-26T05:15:50.451Z,5.15
2022-09-26T05:18:16.875Z,3.58
2022-09-26T05:20:45.520Z,3.72
2022-09-26T05:23:12.106Z,4.70
2022-09-26T05:25:58.117Z,3.80
2022-09-26T05:28:25.004Z,4.28
2022-09-26T05:30:51.947Z,4.20
2022-09-26T05:33:21.853Z,4.90
2022-09-26T05:35:54.817Z,4.50
2022-09-26T05:38:21.274Z,4.38
2022-09-26T05:40:56.826Z,4.18
2022-09-26T05:43:35.899Z,4.30
2022-09-26T05:46:04.131Z,4.65
2022-09-26T05:48:32.341Z,3.83
2022-09-26T05:51:12.691Z,4.78
2022-09-26T05:53:39.917Z,3.50
2022-09-26T05:56:06.847Z,3.63
2022-09-26T05:58:34.359Z,3.30
2022-09-26T06:01:11.359Z,3.60
2022-09-26T06:03:38.128Z,3.63
2022-09-26T06:06:07.793Z,3.50
2022-09-26T06:08:35.187Z,3.55
2022-09-26T06:11:03.297Z,3.58
2022-09-26T06:13:30.337Z,3.05
2022-09-26T06:15:57.544Z,3.88
2022-09-26T06:18:24.435Z,3.20
2022-09-26T06:20:50.845Z,3.40
2022-09-26T06:23:17.319Z,3.20
2022-09-26T06:25:43.959Z,2.83
2022-09-26T06:28:10.356Z,3.20
2022-09-26T06:30:36.843Z,2.75
2022-09-26T06:33:03.975Z,2.70
2022-09-26T06:35:30.391Z,2.72
2022-09-26T06:37:59.045Z,2.60
2022-09-26T06:40:25.561Z,2.72
2022-09-26T06:42:52.298Z,2.22
2022-09-26T06:45:18.747Z,2.63
2022-09-26T06:47:47.377Z,2.28
2022-09-26T06:50:14.679Z,1.95
2022-09-26T06:52:42.422Z,1.92
2022-09-26T06:55:09.493Z,2.35
2022-09-26T06:57:43.003Z,2.47
2022-09-26T07:02:35.897Z,2.03
2022-09-26T07:05:03.360Z,2.13
2022-09-26T07:07:32.733Z,2.00
2022-09-26T07:09:59.306Z,2.20
2022-09-26T07:12:26.035Z,2.30
2022-09-26T07:14:53.794Z,2.17
2022-09-26T07:17:20.527Z,1.77
2022-09-26T07:19:50.567Z,2.83
2022-09-26T07:22:17.044Z,2.22
2022-09-26T07:24:46.336Z,1.90
2022-09-26T07:27:13.069Z,2.03
2022-09-26T07:29:39.550Z,1.80
2022-09-26T07:32:05.988Z,2.20
2022-09-26T07:34:32.416Z,2.03
2022-09-26T07:36:59.812Z,1.70
2022-09-26T07:39:26.587Z,2.20
2022-09-26T07:41:53.221Z,2.20
2022-09-26T07:45:09.218Z,2.45
2022-09-26T07:47:24.802Z,2.50
2022-09-26T07:50:09.915Z,2.10
2022-09-26T07:52:36.345Z,2.13
2022-09-26T07:55:03.077Z,2.97
2022-09-26T07:57:33.110Z,2.00
2022-09-26T07:59:59.728Z,2.85
2022-09-26T08:02:29.160Z,2.65
2022-09-26T08:05:00.774Z,2.60
2022-09-26T08:07:27.532Z,2.40
2022-09-26T08:09:54.361Z,2.42
2022-09-26T08:12:20.931Z,2.42
2022-09-26T08:14:49.168Z,2.75
2022-09-26T08:17:16.258Z,2.78
2022-09-26T08:19:42.864Z,2.58
2022-09-26T08:22:10.138Z,3.10
2022-09-26T08:24:37.258Z,2.55
2022-09-26T08:27:03.699Z,2.80
2022-09-26T08:29:32.265Z,3.03
2022-09-26T08:31:59.036Z,2.65
2022-09-26T08:34:25.961Z,2.00
2022-09-26T08:36:55.353Z,2.28
2022-09-26T08:39:22.166Z,2.95
2022-09-26T08:41:59.248Z,3.42
2022-09-26T08:44:45.727Z,3.10
2022-09-26T08:47:29.526Z,2.72
2022-09-26T08:52:26.503Z,3.60
2022-09-26T08:54:54.696Z,4.30
2022-09-26T08:57:34.154Z,3.22
2022-09-26T09:00:04.278Z,2.65
2022-09-26T09:02:37.451Z,3.25
2022-09-26T09:05:24.425Z,3.80
2022-09-26T09:07:52.073Z,2.78
2022-09-26T09:10:20.473Z,4.35
2022-09-26T09:13:07.179Z,6.43
2022-09-26T09:16:06.177Z,3.53
2022-09-26T09:18:44.342Z,4.18
2022-09-26T09:21:32.195Z,4.18
2022-09-26T09:24:19.020Z,3.10
2022-09-26T09:30:00.021Z,4.45
2022-09-26T09:32:30.331Z,3.45
2022-09-26T09:34:57.377Z,3.60
2022-09-26T09:37:25.448Z,3.65
2022-09-26T09:39:52.584Z,4.13
2022-09-26T09:42:23.244Z,2.78
2022-09-26T09:45:00.803Z,3.38
2022-09-26T09:47:27.994Z,3.45
2022-09-26T09:49:55.184Z,3.20
2022-09-26T09:52:46.537Z,3.38
2022-09-26T09:55:19.535Z,3.83
2022-09-26T09:57:53.558Z,2.88
2022-09-26T10:00:24.124Z,3.80
2022-09-26T10:02:53.256Z,4.38
2022-09-26T10:05:24.611Z,3.40
2022-09-26T10:07:59.965Z,3.38
2022-09-26T10:10:46.653Z,3.67
2022-09-26T10:13:13.212Z,3.53
2022-09-26T10:15:43.191Z,4.03
2022-09-26T10:18:24.544Z,4.38
2022-09-26T10:20:54.066Z,4.15
2022-09-26T10:23:26.501Z,4.38
2022-09-26T10:25:55.499Z,4.25
2022-09-26T10:28:24.699Z,5.10
2022-09-26T10:30:51.801Z,3.53
2022-09-26T10:33:25.774Z,3.75
2022-09-26T10:35:58.779Z,4.07
2022-09-26T10:38:29.216Z,3.90
2022-09-26T10:41:00.406Z,4.70
2022-09-26T10:43:30.912Z,4.22
2022-09-26T10:46:06.522Z,3.75
2022-09-26T10:48:38.273Z,3.88
2022-09-26T10:51:05.692Z,4.00
2022-09-26T10:53:35.986Z,4.05
2022-09-26T10:56:06.504Z,4.47
2022-09-26T10:58:38.932Z,3.88
2022-09-26T11:01:05.520Z,3.58
2022-09-26T11:03:44.938Z,4.00
2022-09-26T11:06:23.893Z,3.53
2022-09-26T11:08:52.173Z,3.90
2022-09-26T11:11:21.272Z,3.97
2022-09-26T11:14:01.819Z,3.40
2022-09-26T11:16:28.433Z,3.97
2022-09-26T11:19:01.282Z,3.70
2022-09-26T11:21:33.643Z,4.78
2022-09-26T11:24:02.941Z,3.72
2022-09-26T11:26:40.579Z,3.67
2022-09-26T11:29:14.805Z,3.60
2022-09-26T11:31:44.156Z,4.03
2022-09-26T11:34:17.116Z,3.58
2022-09-26T11:36:52.663Z,3.25
2022-09-26T11:39:27.306Z,3.35
2022-09-26T11:41:53.628Z,3.95
2022-09-26T11:44:35.446Z,3.72
2022-09-26T11:47:13.989Z,3.38
2022-09-26T11:49:44.523Z,3.50
2022-09-26T11:52:17.648Z,3.45
2022-09-26T11:55:15.083Z,3.38
2022-09-26T11:58:04.665Z,3.35
2022-09-26T12:00:37.236Z,3.00
2022-09-26T12:03:17.234Z,3.40
2022-09-26T12:05:48.944Z,3.20
2022-09-26T12:08:23.564Z,3.25
2022-09-26T12:10:49.953Z,2.67
2022-09-26T12:13:35.372Z,2.72
2022-09-26T12:16:04.879Z,3.08
2022-09-26T12:18:46.513Z,4.07
2022-09-26T12:21:32.403Z,3.05
2022-09-26T12:24:07.243Z,3.45
2022-09-26T12:26:45.027Z,2.80
2022-09-26T12:29:32.084Z,3.22
2022-09-26T12:32:14.723Z,2.92
2022-09-26T12:34:50.496Z,2.70
2022-09-26T12:37:16.926Z,2.95
2022-09-26T12:39:46.326Z,2.70
2022-09-26T12:42:25.558Z,3.33
2022-09-26T12:45:07.492Z,3.00
2022-09-26T12:47:37.175Z,2.78
2022-09-26T12:50:08.150Z,2.80
2022-09-26T12:52:53.260Z,3.00
2022-09-26T12:55:31.290Z,3.20
2022-09-26T12:58:29.205Z,2.75
2022-09-26T13:01:12.188Z,3.05
2022-09-26T13:03:42.492Z,3.03
2022-09-26T13:06:28.119Z,3.10
2022-09-26T13:09:03.650Z,2.75
2022-09-26T13:11:36.318Z,3.40
2022-09-26T13:14:14.673Z,4.03
2022-09-26T13:16:56.164Z,2.97
2022-09-26T13:19:28.798Z,3.45
2022-09-26T13:22:01.800Z,3.73
2022-09-26T13:24:34.898Z,4.32
2022-09-26T13:27:11.453Z,3.78
2022-09-26T13:29:38.206Z,3.42
2022-09-26T13:32:22.756Z,3.35
2022-09-26T13:35:02.897Z,3.20
2022-09-26T13:37:48.989Z,3.35
2022-09-26T13:40:21.322Z,3.55
2022-09-26T13:43:00.716Z,3.63
2022-09-26T13:45:44.363Z,3.50
2022-09-26T13:48:18.556Z,3.33
2022-09-26T13:50:47.739Z,2.92
2022-09-26T13:53:40.473Z,3.00
2022-09-26T13:56:27.425Z,2.65
2022-09-26T13:59:12.045Z,2.70
2022-09-26T14:01:40.289Z,3.17
2022-09-26T14:04:17.714Z,2.58
2022-09-26T14:07:02.363Z,3.13
2022-09-26T14:09:40.784Z,2.67
2022-09-26T14:12:17.580Z,2.97
2022-09-26T14:14:46.063Z,1.80
2022-09-26T14:17:31.505Z,1.90
2022-09-26T14:20:00.361Z,2.10
2022-09-26T14:22:34.652Z,2.20
2022-09-26T14:25:02.288Z,2.30
2022-09-26T14:27:36.311Z,2.53
2022-09-26T14:30:22.538Z,2.40
2022-09-26T14:32:49.029Z,2.70
2022-09-26T14:35:27.847Z,2.40
2022-09-26T14:38:00.790Z,1.95
2022-09-26T14:40:29.402Z,2.30
2022-09-26T14:43:02.159Z,2.15
2022-09-26T14:45:38.205Z,1.90
2022-09-26T14:48:23.451Z,2.00
2022-09-26T14:50:56.659Z,1.73
2022-09-26T14:53:29.153Z,1.90
2022-09-26T14:56:08.287Z,1.98
2022-09-26T14:58:37.751Z,1.63
2022-09-26T15:01:23.162Z,1.63
2022-09-26T15:04:13.841Z,1.63
2022-09-26T15:06:43.279Z,2.17
2022-09-26T15:09:11.205Z,1.80
2022-09-26T15:11:44.122Z,2.08
2022-09-26T15:14:33.982Z,2.47
2022-09-26T15:17:01.036Z,3.72
2022-09-26T15:19:35.770Z,2.60
2022-09-26T15:22:13.222Z,2.35
2022-09-26T15:24:39.957Z,2.17
2022-09-26T15:27:09.547Z,3.78
2022-09-26T15:29:37.026Z,2.38
2022-09-26T15:32:03.565Z,2.20
2022-09-26T15:34:34.547Z,2.40
2022-09-26T15:37:02.475Z,2.65
2022-09-26T15:39:32.033Z,2.88
2022-09-26T15:42:24.303Z,3.30
2022-09-26T15:45:00.585Z,2.70
2022-09-26T15:47:26.974Z,2.65
2022-09-26T15:50:02.734Z,2.45
2022-09-26T15:52:30.193Z,3.00
2022-09-26T15:54:56.663Z,3.42
2022-09-26T15:57:23.108Z,3.65
2022-09-26T15:59:49.600Z,3.85
2022-09-26T16:02:20.629Z,3.38
2022-09-26T16:04:49.461Z,4.07
2022-09-26T16:07:21.151Z,3.33
2022-09-26T16:09:48.695Z,3.28
2022-09-26T16:12:15.510Z,3.45
2022-09-26T16:14:46.786Z,3.33
2022-09-26T16:17:32.491Z,3.63
2022-09-26T16:20:02.455Z,3.95
2022-09-26T16:22:40.572Z,3.40
2022-09-26T16:25:15.907Z,3.55
2022-09-26T16:27:43.061Z,4.00
2022-09-26T16:30:28.057Z,3.95
2022-09-26T16:32:55.412Z,4.40
2022-09-26T16:35:30.024Z,4.60
2022-09-26T16:37:59.638Z,4.13
2022-09-26T16:40:35.394Z,4.65
2022-09-26T16:43:03.196Z,3.75
2022-09-26T16:45:29.801Z,4.43
2022-09-26T16:47:56.313Z,4.95
2022-09-26T16:50:28.905Z,4.57
2022-09-26T16:52:55.851Z,5.47
2022-09-26T16:55:22.910Z,5.35
2022-09-26T16:57:52.082Z,4.95
2022-09-26T17:00:37.947Z,4.47
2022-09-26T17:03:16.685Z,5.20
2022-09-26T17:05:43.331Z,5.13
2022-09-26T17:08:10.959Z,5.35
2022-09-26T17:10:37.667Z,6.07
2022-09-26T17:13:04.723Z,6.22
2022-09-26T17:15:31.846Z,5.68
2022-09-26T17:18:00.670Z,6.15
2022-09-26T17:20:27.911Z,6.40
2022-09-26T17:22:55.085Z,5.88
2022-09-26T17:25:25.041Z,5.75
2022-09-26T17:27:53.763Z,7.22
2022-09-26T17:30:20.634Z,6.13
2022-09-26T17:32:50.014Z,5.88
2022-09-26T17:35:31.943Z,6.38
2022-09-26T17:37:58.840Z,6.53
2022-09-26T17:40:26.620Z,6.53
2022-09-26T17:42:55.383Z,7.43
2022-09-26T17:45:25.447Z,6.63
2022-09-26T17:47:57.485Z,7.30
2022-09-26T17:50:26.458Z,7.43
2022-09-26T17:52:53.729Z,7.55
2022-09-26T17:55:22.922Z,6.78
2022-09-26T17:57:49.696Z,6.32
2022-09-26T18:00:18.057Z,5.82
2022-09-26T18:02:46.087Z,6.60
2022-09-26T18:05:26.791Z,6.65
2022-09-26T18:07:54.752Z,6.03
2022-09-26T18:10:22.934Z,4.88
2022-09-26T18:12:56.727Z,5.20
2022-09-26T18:15:24.433Z,5.13
2022-09-26T18:17:51.618Z,4.68
2022-09-26T18:20:19.587Z,4.47
2022-09-26T18:22:47.675Z,4.07
2022-09-26T18:25:19.172Z,3.95
2022-09-26T18:27:53.534Z,5.18
2022-09-26T18:30:21.186Z,4.22
2022-09-26T18:32:51.349Z,3.88
2022-09-26T18:35:19.913Z,3.85
2022-09-26T18:37:46.516Z,3.60
2022-09-26T18:40:16.614Z,3.63
2022-09-26T18:42:48.465Z,3.33
2022-09-26T18:45:16.668Z,3.75
2022-09-26T18:47:44.733Z,3.67
2022-09-26T18:50:31.484Z,3.25
2022-09-26T18:52:57.965Z,3.55
2022-09-26T18:55:44.220Z,3.30
2022-09-26T18:58:24.038Z,3.20
2022-09-26T19:01:01.877Z,3.95
2022-09-26T19:03:30.114Z,3.38
2022-09-26T19:06:04.656Z,3.10
2022-09-26T19:08:38.956Z,3.83
2022-09-26T19:11:15.867Z,2.90
2022-09-26T19:13:47.508Z,3.60
2022-09-26T19:16:14.483Z,3.50
2022-09-26T19:18:41.327Z,2.90
2022-09-26T19:21:22.905Z,3.50
2022-09-26T19:23:50.088Z,3.60
2022-09-26T19:26:23.536Z,3.70
2022-09-26T19:28:50.067Z,3.50
2022-09-26T19:31:16.745Z,2.75
2022-09-26T19:33:45.697Z,2.88
2022-09-26T19:36:15.099Z,2.65
2022-09-26T19:38:41.570Z,2.60
2022-09-26T19:41:08.190Z,2.25
2022-09-26T19:43:35.236Z,2.50
2022-09-26T19:46:02.906Z,2.85
2022-09-26T19:48:29.529Z,2.60
2022-09-26T19:50:56.151Z,3.10
2022-09-26T19:53:24.088Z,2.47
2022-09-26T19:55:50.823Z,3.15
2022-09-26T19:58:18.634Z,3.70
2022-09-26T20:00:48.074Z,2.95
2022-09-26T20:03:19.110Z,2.65
2022-09-26T20:05:47.117Z,2.42
2022-09-26T20:08:16.131Z,3.00
2022-09-26T20:10:43.193Z,2.63
2022-09-26T20:13:09.968Z,2.92
2022-09-26T20:15:37.039Z,2.90
2022-09-26T20:18:04.006Z,2.90
2022-09-26T20:20:32.177Z,2.90
2022-09-26T20:22:58.822Z,2.40
2022-09-26T20:25:27.423Z,2.08
2022-09-26T20:27:54.347Z,1.92
2022-09-26T20:30:39.682Z,1.98
2022-09-26T20:33:06.704Z,1.48
2022-09-26T20:35:36.894Z,1.60
2022-09-26T20:38:04.687Z,1.13
2022-09-26T20:40:31.577Z,1.52
2022-09-26T20:42:59.631Z,1.58
2022-09-26T20:45:29.839Z,1.70
2022-09-26T20:47:59.332Z,1.48
2022-09-26T20:50:29.440Z,1.48
2022-09-26T20:52:58.301Z,2.00
2022-09-26T20:55:24.678Z,1.80
2022-09-26T20:57:51.563Z,2.13
2022-09-26T21:00:20.112Z,1.95
2022-09-26T21:02:51.577Z,1.23
2022-09-26T21:05:19.755Z,1.40
2022-09-26T21:07:46.513Z,1.42
2022-09-26T21:10:26.586Z,1.50
2022-09-26T21:12:53.616Z,1.17
2022-09-26T21:15:21.043Z,1.27
2022-09-26T21:17:47.753Z,1.25
2022-09-26T21:20:15.914Z,1.38
2022-09-26T21:22:42.588Z,1.08
2022-09-26T21:25:19.041Z,1.40
2022-09-26T21:27:46.164Z,1.25
2022-09-26T21:30:13.982Z,1.40
2022-09-26T21:32:42.964Z,1.20
2022-09-26T21:35:10.858Z,1.67
2022-09-26T21:37:37.274Z,1.10
2022-09-26T21:40:03.750Z,2.15
2022-09-26T21:42:30.237Z,1.17
2022-09-26T21:44:59.372Z,1.50
2022-09-26T21:47:27.087Z,1.70
2022-09-26T21:49:54.527Z,2.28
2022-09-26T21:52:34.836Z,1.85
2022-09-26T21:55:02.110Z,1.95
2022-09-26T21:57:31.145Z,2.38
2022-09-26T21:59:58.228Z,3.30
2022-09-26T22:02:25.879Z,4.00
2022-09-26T22:04:52.792Z,5.18
2022-09-26T22:07:19.221Z,5.53
2022-09-26T22:09:45.767Z,3.75
2022-09-26T22:12:12.267Z,3.45
2022-09-26T22:14:38.738Z,3.55
2022-09-26T22:17:05.298Z,2.70
2022-09-26T22:19:35.261Z,2.30
2022-09-26T22:22:01.783Z,2.30
2022-09-26T22:24:28.419Z,2.35
2022-09-26T22:26:54.813Z,2.78
2022-09-26T22:29:21.420Z,2.85
2022-09-26T22:31:47.875Z,2.47
2022-09-26T22:34:14.387Z,3.08
2022-09-26T22:36:40.821Z,2.78
2022-09-26T22:39:07.193Z,2.50
2022-09-26T22:41:33.561Z,2.78
2022-09-26T22:44:00.891Z,1.98
2022-09-26T22:46:27.383Z,2.17
2022-09-26T22:48:53.843Z,3.00
2022-09-26T22:51:20.323Z,2.45
2022-09-26T22:53:46.820Z,2.55
2022-09-26T22:56:14.926Z,2.78
2022-09-26T22:58:43.032Z,3.33
2022-09-26T23:01:10.613Z,3.28
2022-09-26T23:03:37.167Z,2.50
2022-09-26T23:06:04.541Z,2.17
2022-09-26T23:08:31.919Z,2.60
2022-09-26T23:10:58.546Z,1.77
2022-09-26T23:13:25.266Z,1.95
2022-09-26T23:15:51.738Z,2.13
2022-09-26T23:18:18.302Z,2.83
2022-09-26T23:20:45.005Z,1.80
2022-09-26T23:23:12.141Z,2.10
2022-09-26T23:25:45.714Z,2.17
2022-09-26T23:30:38.545Z,1.50
2022-09-26T23:33:04.996Z,2.20
2022-09-26T23:35:31.396Z,2.33
2022-09-26T23:37:58.081Z,2.58
2022-09-26T23:40:24.726Z,2.70
2022-09-26T23:42:51.183Z,2.15
2022-09-26T23:45:17.629Z,2.28
2022-09-26T23:47:44.373Z,1.95
2022-09-26T23:50:10.851Z,1.77
2022-09-26T23:52:37.349Z,1.52
2022-09-26T23:55:04.477Z,2.03
2022-09-26T23:57:30.966Z,2.60
2022-09-26T23:59:57.431Z,2.20
